Latest Weather Observations for Central Arnhem Plateau

IDD60801

Issued at 5:31 pm CST Tuesday 6 December 2016 (issued every 30 minutes, with the page automatically refreshed every 10 minutes)

About weather observations | Map of weather stations | Latest weather observations for NT | Other Formats
Station Details ID: 014909 Name: CENTRAL ARNHEM PLATEAU Lat: -13.33 Lon: 133.09 Height: 416.0 m
Data from the previous 72 hours. | See also: Recent months at Central Arnhem Plateau
Date/Time
CST
Temp
°C
App
Temp
°C
Dew
Point
°C
Rel
Hum
%
Delta-T
°C
Wind Press
QNH
hPa
Press
MSL
hPa
Rain since
9am
mm
Dir  Spd
km/h
Gust
km/h
Spd
kts
Gust
kts
06/05:00pm 33.2 32.8 16.1 35 10.9 NNE 13 19 7 10 1008.4 1005.3 0.0
06/04:30pm 33.9 33.9 16.3 35 11.3 NNE 11 17 6 9 1008.4 1005.3 0.0
06/04:00pm 32.7 32.4 16.5 37 10.4 NE 13 17 7 9 1008.6 1005.5 0.0
06/03:30pm 33.0 32.1 15.9 35 10.9 ENE 15 20 8 11 1009.0 1005.8 0.0
06/03:00pm 33.6 33.4 15.6 34 11.4 NE 11 19 6 10 1009.3 1006.1 0.0
06/02:30pm 32.8 32.1 15.3 34 11.1 ENE 13 20 7 11 1009.8 1006.6 0.0
06/02:00pm 33.4 32.7 16.3 36 11.0 NE 15 24 8 13 1010.2 1007.1 0.0
06/01:30pm 32.9 32.7 17.5 39 10.0 NE 15 20 8 11 1010.6 1007.5 0.0
06/01:00pm 32.0 32.4 18.2 43 9.0 NE 13 20 7 11 1011.2 1008.1 0.0
06/12:30pm 31.2 33.1 18.5 46 8.3 NNE 6 11 3 6 1011.7 1008.5 0.0
06/12:00pm 31.2 32.8 18.2 46 8.5 NNE 7 11 4 6 1012.1 1008.9 0.0
06/11:30am 30.1 31.3 18.2 49 7.8 E 9 17 5 9 1012.7 1009.6 0.0
06/11:00am 30.3 32.1 18.7 50 7.6 ENE 7 15 4 8 1013.1 1010.0 0.0
06/10:30am 30.0 32.2 19.7 54 6.9 NNE 7 13 4 7 1013.5 1010.4 0.0
06/10:00am 30.0 31.3 19.4 53 7.0 E 11 17 6 9 1013.6 1010.5 0.0
06/09:30am 28.7 30.2 18.8 55 6.5 NE 9 11 5 6 1013.7 1010.6 0.0
06/09:00am 28.2 29.6 18.6 56 6.3 ENE 9 13 5 7 1013.9 1010.7 0.0
06/08:30am 28.2 30.4 18.3 55 6.4 ESE 4 9 2 5 1013.9 1010.7 0.0
06/08:00am 27.3 29.5 19.1 61 5.4 W 6 9 3 5 1013.7 1010.6 0.0
06/07:30am 26.9 30.3 19.3 63 5.0 CALM 0 0 0 0 1013.6 1010.5 0.0
06/07:00am 26.2 28.6 19.6 67 4.3 WSW 6 7 3 4 1013.5 1010.4 0.0
06/06:30am 25.4 28.6 20.4 74 3.3 WSW 4 6 2 3 1013.2 1010.1 0.0
06/06:00am 24.8 27.3 19.8 74 3.3 WSW 6 9 3 5 1013.0 1009.9 0.0
06/05:30am 25.0 28.7 20.0 74 3.3 CALM 0 0 0 0 1012.4 1009.3 0.0
06/05:00am 25.2 28.5 20.0 73 3.4 NW 2 6 1 3 1012.2 1009.1 0.0
06/04:30am 24.8 27.3 19.8 74 3.3 W 6 7 3 4 1011.8 1008.6 0.0
06/04:00am 24.3 26.9 20.0 77 2.8 WNW 6 7 3 4 1011.6 1008.4 0.0
06/03:30am 24.5 28.1 19.8 75 3.1 CALM 0 0 0 0 1011.4 1008.2 0.0
06/03:00am 25.4 28.8 19.3 69 4.0 CALM 0 0 0 0 1011.4 1008.2 0.0
06/02:30am 25.1 28.4 19.2 70 3.8 CALM 0 0 0 0 1011.2 1008.1 0.0
06/02:00am 25.3 28.6 19.0 68 4.1 CALM 0 0 0 0 1011.5 1008.3 0.0
06/01:30am 25.6 28.8 18.8 66 4.4 CALM 0 0 0 0 1011.7 1008.5 0.0
06/01:00am 25.2 28.1 18.2 65 4.5 CALM 0 0 0 0 1011.9 1008.7 0.0
06/12:30am 26.4 29.4 18.5 62 5.1 CALM 0 0 0 0 1012.2 1009.1 0.0
06/12:00am 26.6 28.3 17.1 56 6.0 NNW 4 6 2 3 1012.3 1009.2 0.0
 
Date/Time
CST
Temp
°C
App
Temp
°C
Dew
Point
°C
Rel
Hum
%
Delta-T
°C
Wind Press
QNH
hPa
Press
MSL
hPa
Rain since
9am
mm
Dir  Spd
km/h
Gust
km/h
Spd
kts
Gust
kts
05/11:30pm 27.4 28.1 15.7 48 7.3 NNW 6 7 3 4 1012.4 1009.3 0.0
05/11:00pm 28.0 27.8 15.6 46 7.7 NW 11 13 6 7 1012.2 1009.1 0.0
05/10:30pm 28.2 28.8 15.8 47 7.8 NW 7 9 4 5 1011.9 1008.7 0.0
05/10:00pm 28.1 29.1 16.4 49 7.4 NW 6 7 3 4 1011.7 1008.5 0.0
05/09:30pm 27.5 30.3 17.9 55 6.2 CALM 0 0 0 0 1011.5 1008.3 0.0
05/09:00pm 27.8 31.3 19.6 61 5.4 CALM 0 0 0 0 1011.2 1008.1 0.0
05/08:30pm 27.9 30.6 17.7 53 6.6 CALM 0 6 0 3 1011.0 1007.9 0.0
05/08:00pm 28.6 29.9 17.2 50 7.3 NW 6 6 3 3 1010.5 1007.4 0.0
05/07:30pm 29.1 30.6 17.6 50 7.4 N 6 6 3 3 1010.0 1006.9 0.0
05/07:00pm 30.4 32.2 16.4 43 8.9 NNE 2 6 1 3 1009.8 1006.6 0.0
05/06:30pm 32.2 31.4 12.9 31 11.7 ESE 9 11 5 6 1009.4 1006.2 0.0
05/06:00pm 32.1 32.2 13.8 33 11.3 NE 6 7 3 4 1009.3 1006.1 0.0
05/05:30pm 32.5 30.8 13.7 32 11.6 NE 15 20 8 11 1009.1 1005.9 0.0
05/05:00pm 33.0 31.9 13.1 30 12.2 E 11 19 6 10 1008.9 1005.7 0.0
05/04:30pm 32.8 31.6 12.9 29 12.1 E 11 17 6 9 1008.7 1005.6 0.0
05/04:00pm 32.3 31.1 14.0 33 11.3 ENE 13 17 7 9 1009.0 1005.8 0.0
05/03:30pm 33.6 32.1 13.1 29 12.6 E 13 24 7 13 1009.1 1005.9 0.0
05/03:00pm 33.8 32.0 12.2 27 13.1 SE 13 24 7 13 1009.5 1006.3 0.0
05/02:30pm 33.1 32.2 12.7 29 12.4 ESE 9 17 5 9 1009.8 1006.6 0.0
05/02:00pm 32.8 30.9 12.9 29 12.1 ESE 15 24 8 13 1010.2 1007.1 0.0
05/01:30pm 31.6 30.2 13.4 33 11.1 E 13 19 7 10 1010.4 1007.3 0.0
05/01:00pm 31.6 30.2 13.4 33 11.1 SSE 13 20 7 11 1010.9 1007.8 0.0
05/12:30pm 31.9 30.2 13.6 32 11.2 E 15 24 8 13 1011.2 1008.1 0.0
05/12:00pm 31.5 30.2 13.7 33 10.9 SE 13 24 7 13 1011.7 1008.5 0.0
05/11:30am 30.8 29.6 12.7 33 10.9 SE 11 19 6 10 1012.2 1009.1 0.0
05/11:00am 30.3 27.9 12.7 34 10.6 SE 17 24 9 13 1012.5 1009.4 0.0
05/10:30am 30.1 29.9 15.8 42 9.0 SSE 11 17 6 9 1012.9 1009.8 0.0
05/10:00am 29.1 28.6 17.0 48 7.7 ESE 15 20 8 11 1013.2 1010.1 0.0
05/09:30am 28.0 27.8 16.6 50 7.2 E 13 20 7 11 1013.3 1010.2 0.0
05/09:00am 27.7 28.2 17.5 53 6.5 SE 11 17 6 9 1013.4 1010.3 0.0
05/08:30am 27.2 28.7 19.0 61 5.4 E 9 13 5 7 1013.2 1010.1 0.0
05/08:00am 27.1 29.2 18.9 61 5.3 ESE 6 11 3 6 1013.0 1009.9 0.0
05/07:30am 27.2 30.2 18.5 59 5.6 CALM 0 0 0 0 1013.0 1009.9 0.0
05/07:00am 25.7 29.6 20.3 72 3.6 CALM 0 0 0 0 1012.7 1009.6 0.0
05/06:30am 24.0 27.6 19.7 77 2.8 CALM 0 0 0 0 1012.2 1009.1 0.0
05/06:00am 23.7 27.2 19.6 78 2.7 CALM 0 0 0 0 1011.9 1008.7 0.0
05/05:30am 23.7 27.2 19.6 78 2.7 CALM 0 0 0 0 1011.7 1008.5 0.0
05/05:00am 23.9 27.4 19.6 77 2.8 CALM 0 0 0 0 1011.1 1008.0 0.0
05/04:30am 23.9 27.4 19.6 77 2.8 CALM 0 0 0 0 1010.7 1007.6 0.0
05/04:00am 24.0 27.5 19.5 76 2.9 CALM 0 0 0 0 1010.5 1007.4 0.0
05/03:30am 24.1 26.9 19.6 76 2.9 NNE 4 6 2 3 1010.4 1007.3 0.0
05/03:00am 24.5 28.2 20.0 76 3.0 CALM 0 0 0 0 1010.5 1007.4 0.0
05/02:30am 24.8 28.3 19.6 73 3.4 CALM 0 6 0 3 1010.6 1007.5 0.0
05/02:00am 25.1 27.7 19.2 70 3.8 NNE 4 6 2 3 1010.9 1007.8 0.0
05/01:30am 25.8 28.1 19.4 67 4.2 N 6 9 3 5 1011.2 1008.1 0.0
05/01:00am 26.1 29.4 19.2 65 4.5 CALM 0 0 0 0 1011.7 1008.5 0.0
05/12:30am 26.3 28.4 18.9 63 4.8 NNE 6 7 3 4 1012.0 1008.8 0.0
05/12:00am 26.9 28.9 18.7 60 5.3 N 6 7 3 4 1012.3 1009.2 0.0
 
Date/Time
CST
Temp
°C
App
Temp
°C
Dew
Point
°C
Rel
Hum
%
Delta-T
°C
Wind Press
QNH
hPa
Press
MSL
hPa
Rain since
9am
mm
Dir  Spd
km/h
Gust
km/h
Spd
kts
Gust
kts
04/11:30pm 27.2 28.9 18.5 59 5.6 N 7 9 4 5 1012.5 1009.4 0.0
04/11:00pm 27.9 29.7 18.3 56 6.2 NNW 6 7 3 4 1012.5 1009.4 0.0
04/10:30pm 28.2 29.7 18.0 54 6.6 NNW 7 11 4 6 1012.4 1009.3 0.0
04/10:00pm 28.7 29.4 17.9 52 7.0 NNW 11 17 6 9 1012.1 1008.9 0.0
04/09:30pm 29.4 28.1 17.2 47 7.8 NW 20 26 11 14 1011.7 1008.5 0.0
04/09:00pm 28.5 31.8 19.2 57 6.1 CALM 0 0 0 0 1011.1 1008.0 0.0
04/08:30pm 29.2 31.5 16.7 46 8.0 CALM 0 0 0 0 1010.9 1007.8 0.0
04/08:00pm 31.3 32.3 15.3 38 10.0 ESE 4 6 2 3 1010.5 1007.4 0.0
04/07:30pm 31.6 31.8 14.3 35 10.7 ESE 6 9 3 5 1010.3 1007.2 0.0
04/07:00pm 32.4 32.4 14.1 33 11.3 ESE 7 9 4 5 1009.9 1006.7 0.0
04/06:30pm 33.2 32.7 12.8 29 12.4 ESE 7 9 4 5 1009.6 1006.4 0.0
04/06:00pm 33.7 32.5 12.7 28 12.8 E 11 15 6 8 1009.4 1006.2 0.0
04/05:30pm 33.7 31.3 11.5 26 13.3 E 15 20 8 11 1009.4 1006.2 0.0
04/05:00pm 34.3 32.5 12.0 25 13.5 ENE 13 22 7 12 1009.4 1006.2 0.0
04/04:30pm 34.3 33.6 12.0 25 13.5 NE 7 15 4 8 1009.4 1006.2 0.0
04/04:00pm 33.7 32.2 13.2 29 12.6 ENE 13 17 7 9 1009.5 1006.3 0.0
04/03:30pm 34.5 32.7 13.3 27 13.1 ENE 15 22 8 12 1009.6 1006.4 0.0
04/03:00pm 34.2 32.1 12.5 27 13.2 E 15 24 8 13 1009.8 1006.6 0.0
04/02:30pm 34.0 32.1 11.8 26 13.4 NNE 13 19 7 10 1010.3 1007.2 0.0
04/02:00pm 34.2 32.3 13.1 28 13.0 NE 15 26 8 14 1010.6 1007.5 0.0
04/01:30pm 32.8 30.3 12.4 29 12.3 NE 17 28 9 15 1011.1 1008.0 0.0
04/01:00pm 32.9 31.5 13.5 30 11.9 NNE 13 22 7 12 1011.7 1008.5 0.0
04/12:30pm 32.4 30.7 12.6 30 12.0 ENE 13 20 7 11 1012.0 1008.8 0.0
04/12:00pm 32.3 31.1 14.0 33 11.3 NE 13 20 7 11 1012.3 1009.2 0.0
04/11:30am 31.6 30.5 14.3 35 10.7 ENE 13 20 7 11 1012.6 1009.5 0.0
04/11:00am 31.1 30.8 15.5 39 9.8 E 11 17 6 9 1012.8 1009.7 0.0
04/10:30am 30.4 30.6 16.8 44 8.7 ESE 11 15 6 8 1013.2 1010.1 0.0
04/10:00am 29.8 30.7 18.3 50 7.5 ESE 11 17 6 9 1013.4 1010.3 0.0
04/09:30am 29.3 30.8 18.1 51 7.3 E 7 13 4 7 1013.5 1010.4 0.0
04/09:00am 28.6 31.5 19.0 56 6.3 NNE 2 7 1 4 1013.6 1010.5 0.0
04/08:30am 27.9 30.2 18.6 57 6.1 SE 4 9 2 5 1013.6 1010.5 0.0
04/08:00am 27.0 30.1 21.1 70 4.0 SW 6 11 3 6 1013.7 1010.6 0.0
04/07:30am 26.1 29.0 21.1 74 3.4 SSW 7 9 4 5 1013.5 1010.4 0.0
04/07:00am 25.6 29.7 20.8 75 3.2 CALM 0 0 0 0 1013.3 1010.2 0.0
04/06:30am 24.3 28.1 20.2 78 2.7 CALM 0 7 0 4 1013.2 1010.1 0.0
04/06:00am 23.7 27.3 19.8 79 2.6 CALM 0 0 0 0 1012.8 1009.7 0.0
04/05:30am 23.7 27.1 19.4 77 2.8 CALM 0 0 0 0 1012.6 1009.5 0.0
04/05:00am 23.9 26.1 19.2 75 3.0 E 6 7 3 4 1012.2 1009.1 0.0
04/04:30am 24.0 26.2 19.3 75 3.1 E 6 7 3 4 1012.0 1008.8 0.0
04/04:00am 24.1 27.4 19.2 74 3.2 CALM 0 0 0 0 1011.9 1008.7 0.0
04/03:30am 24.2 28.0 20.1 78 2.7 CALM 0 0 0 0 1011.9 1008.7 0.0
04/03:00am 25.2 28.1 21.1 78 2.7 W 7 11 4 6 1011.7 1008.5 0.0
04/02:30am 25.5 28.7 21.2 77 2.9 W 6 13 3 7 1012.0 1008.8 0.0
04/02:00am 25.6 28.7 21.1 76 3.0 W 6 7 3 4 1012.2 1009.1 0.0
04/01:30am 25.8 28.9 21.0 75 3.2 W 6 7 3 4 1012.3 1009.2 0.0
04/01:00am 26.1 28.8 20.2 70 3.9 NW 6 7 3 4 1012.7 1009.6 0.0
04/12:30am 26.4 28.6 19.5 66 4.5 WNW 7 9 4 5 1013.0 1009.9 0.0
04/12:00am 26.7 28.5 18.8 62 5.1 NW 7 11 4 6 1013.4 1010.3 0.0
 
Date/Time
CST
Temp
°C
App
Temp
°C
Dew
Point
°C
Rel
Hum
%
Delta-T
°C
Wind Press
QNH
hPa
Press
MSL
hPa
Rain since
9am
mm
Dir  Spd
km/h
Gust
km/h
Spd
kts
Gust
kts
03/11:30pm 27.0 28.3 17.5 56 6.1 NW 7 11 4 6 1013.5 1010.4 0.0
03/11:00pm 27.6 28.1 16.6 51 6.9 NW 9 13 5 7 1013.6 1010.5 0.0
03/10:30pm 28.1 27.9 14.7 44 8.2 NNW 9 13 5 7 1013.7 1010.6 0.0
03/10:00pm 28.5 28.4 14.0 41 8.8 NNW 7 11 4 6 1013.6 1010.5 0.0
03/09:30pm 28.9 28.7 13.6 39 9.3 NNW 7 11 4 6 1013.2 1010.1 0.0
03/09:00pm 29.2 29.0 14.6 41 9.0 NNW 9 11 5 6 1013.0 1009.9 0.0
03/08:30pm 29.5 29.8 14.9 41 9.1 NNW 7 13 4 7 1012.6 1009.5 0.0
03/08:00pm 29.6 30.5 16.1 44 8.5 N 6 7 3 4 1012.1 1008.9 0.0
03/07:30pm 30.2 30.4 14.3 38 9.8 N 6 7 3 4 1011.7 1008.5 0.0
03/07:00pm 30.4 30.7 14.5 38 9.8 NNE 6 9 3 5 1011.4 1008.2 0.0
03/06:30pm 30.9 30.9 14.1 36 10.4 NNE 7 11 4 6 1011.0 1007.9 0.0
03/06:00pm 31.6 30.6 13.4 33 11.1 NNE 11 13 6 7 1010.8 1007.7 0.0

Other Formats:

Comma delimited format used in spreadsheet applications
http://www.bom.gov.au/fwo/IDD60801/IDD60801.94141.axf

JavaScript Object Notation format (JSON) in row-major order
http://www.bom.gov.au/fwo/IDD60801/IDD60801.94141.json